createdAt,value
2023-03-27T00:01:26.155Z,93874.50
2023-03-27T00:03:55.585Z,93878.28
2023-03-27T00:06:24.864Z,93881.72
2023-03-27T00:08:53.139Z,93877.47
2023-03-27T00:11:21.904Z,93881.09
2023-03-27T00:13:54.461Z,93872.44
2023-03-27T00:16:24.345Z,93871.63
2023-03-27T00:18:52.978Z,93871.00
2023-03-27T00:21:23.012Z,93876.22
2023-03-27T00:23:51.865Z,93874.63
2023-03-27T00:26:21.426Z,93873.78
2023-03-27T00:28:49.311Z,93873.78
2023-03-27T00:31:17.424Z,93873.78
2023-03-27T00:33:45.215Z,93865.97
2023-03-27T00:36:13.209Z,93873.78
2023-03-27T00:38:43.639Z,93868.75
2023-03-27T00:41:11.310Z,93871.53
2023-03-27T00:43:42.700Z,93870.56
2023-03-27T00:46:31.663Z,93874.97
2023-03-27T00:49:02.539Z,93874.97
2023-03-27T00:51:31.829Z,93881.97
2023-03-27T00:54:01.238Z,93885.41
2023-03-27T00:56:30.640Z,93881.16
2023-03-27T00:59:01.948Z,93880.38
2023-03-27T01:01:30.939Z,93882.16
2023-03-27T01:04:02.732Z,93877.75
2023-03-27T01:06:32.101Z,93881.16
2023-03-27T01:09:02.293Z,93877.75
2023-03-27T01:11:40.008Z,93878.56
2023-03-27T01:14:16.624Z,93869.13
2023-03-27T01:16:53.526Z,93869.94
2023-03-27T01:19:53.377Z,93873.31
2023-03-27T01:23:03.581Z,93869.13
2023-03-27T01:26:05.939Z,93874.34
2023-03-27T01:28:43.563Z,93870.72
2023-03-27T01:31:31.758Z,93871.72
2023-03-27T01:34:16.303Z,93868.91
2023-03-27T01:37:07.189Z,93873.53
2023-03-27T01:39:45.894Z,93872.53
2023-03-27T01:42:19.409Z,93882.97
2023-03-27T01:44:52.168Z,93880.38
2023-03-27T01:47:27.450Z,93881.34
2023-03-27T01:50:02.119Z,93874.53
2023-03-27T01:52:35.274Z,93881.34
2023-03-27T01:55:09.708Z,93889.19
2023-03-27T01:57:49.346Z,93874.53
2023-03-27T02:00:22.143Z,93884.16
2023-03-27T02:02:55.070Z,93885.13
2023-03-27T02:05:27.745Z,93879.75
2023-03-27T02:08:00.341Z,93892.81
2023-03-27T02:10:33.976Z,93892.81
2023-03-27T02:13:08.295Z,93890.19
2023-03-27T02:15:41.798Z,93890.19
2023-03-27T02:18:13.281Z,93891.16
2023-03-27T02:20:42.567Z,93883.34
2023-03-27T02:23:10.157Z,93881.72
2023-03-27T02:25:40.719Z,93892.97
2023-03-27T02:28:39.620Z,93893.97
2023-03-27T02:31:32.479Z,93908.63
2023-03-27T02:34:22.555Z,93905.22
2023-03-27T02:37:01.999Z,93917.47
2023-03-27T02:39:37.060Z,93915.69
2023-03-27T02:42:13.486Z,93915.69
2023-03-27T02:44:51.666Z,93925.09
2023-03-27T02:47:27.642Z,93925.31
2023-03-27T02:49:59.334Z,93927.72
2023-03-27T02:52:31.427Z,93931.34
2023-03-27T02:55:06.812Z,93937.34
2023-03-27T02:57:39.669Z,93941.59
2023-03-27T03:00:18.533Z,93937.34
2023-03-27T03:02:47.983Z,93941.59
2023-03-27T03:05:20.653Z,93945.03
2023-03-27T03:07:48.778Z,93940.78
2023-03-27T03:10:17.802Z,93946.00
2023-03-27T03:12:46.788Z,93940.78
2023-03-27T03:15:14.542Z,93938.97
2023-03-27T03:17:42.654Z,93945.19
2023-03-27T03:20:12.305Z,93956.44
2023-03-27T03:22:40.153Z,93949.44
2023-03-27T03:25:08.653Z,93950.41
2023-03-27T03:27:36.288Z,93956.63
2023-03-27T03:30:07.477Z,93954.84
2023-03-27T03:32:35.616Z,93961.84
2023-03-27T03:35:03.284Z,93963.66
2023-03-27T03:37:30.858Z,93964.47
2023-03-27T03:39:58.491Z,93973.13
2023-03-27T03:42:26.174Z,93981.91
2023-03-27T03:44:53.748Z,93977.53
2023-03-27T03:47:22.794Z,93978.34
2023-03-27T03:49:50.374Z,93982.75
2023-03-27T03:52:17.959Z,93989.56
2023-03-27T03:54:46.841Z,93998.41
2023-03-27T03:57:14.909Z,93997.41
2023-03-27T03:59:43.311Z,94007.06
2023-03-27T04:02:12.383Z,94007.84
2023-03-27T04:04:43.745Z,94013.88
2023-03-27T04:07:13.158Z,94018.28
2023-03-27T04:09:40.721Z,94026.75
2023-03-27T04:12:08.545Z,94019.91
2023-03-27T04:14:36.422Z,94031.19
2023-03-27T04:17:04.466Z,94027.56
2023-03-27T04:19:32.019Z,94023.97
2023-03-27T04:22:02.429Z,94021.38
2023-03-27T04:24:30.771Z,94023.97
2023-03-27T04:27:01.143Z,94031.00
2023-03-27T04:29:30.278Z,94035.22
2023-03-27T04:31:58.344Z,94037.03
2023-03-27T04:34:26.419Z,94047.28
2023-03-27T04:36:54.194Z,94050.09
2023-03-27T04:39:23.178Z,94049.28
2023-03-27T04:41:50.782Z,94065.75
2023-03-27T04:44:18.559Z,94067.56
2023-03-27T04:46:48.755Z,94082.41
2023-03-27T04:49:19.054Z,94089.25
2023-03-27T04:51:47.932Z,94104.94
2023-03-27T04:54:15.567Z,94117.97
2023-03-27T04:56:45.679Z,94124.16
2023-03-27T04:59:13.488Z,94132.81
2023-03-27T05:01:41.153Z,94133.00
2023-03-27T05:04:08.921Z,94139.84
2023-03-27T05:06:37.031Z,94155.50
2023-03-27T05:09:06.070Z,94152.06
2023-03-27T05:11:33.680Z,94165.94
2023-03-27T05:14:02.698Z,94172.97
2023-03-27T05:16:30.392Z,94173.78
2023-03-27T05:18:58.015Z,94185.22
2023-03-27T05:21:25.971Z,94194.66
2023-03-27T05:23:53.581Z,94193.84
2023-03-27T05:26:22.246Z,94202.69
2023-03-27T05:28:51.206Z,94213.97
2023-03-27T05:31:20.279Z,94213.97
2023-03-27T05:33:47.870Z,94226.19
2023-03-27T05:36:16.411Z,94229.78
2023-03-27T05:38:44.412Z,94241.84
2023-03-27T05:41:12.282Z,94251.47
2023-03-27T05:43:39.868Z,94257.53
2023-03-27T05:46:07.636Z,94272.38
2023-03-27T05:48:36.619Z,94276.78
2023-03-27T05:51:04.529Z,94288.03
2023-03-27T05:53:32.335Z,94298.47
2023-03-27T05:56:02.784Z,94301.91
2023-03-27T05:58:31.616Z,94308.75
2023-03-27T06:00:59.382Z,94319.19
2023-03-27T06:03:30.472Z,94333.06
2023-03-27T06:06:00.994Z,94341.91
2023-03-27T06:08:29.510Z,94338.28
2023-03-27T06:10:57.397Z,94353.94
2023-03-27T06:13:25.497Z,94368.66
2023-03-27T06:15:55.227Z,94373.88
2023-03-27T06:18:23.368Z,94379.88
2023-03-27T06:20:51.800Z,94387.72
2023-03-27T06:23:20.738Z,94404.22
2023-03-27T06:25:48.373Z,94406.81
2023-03-27T06:28:16.226Z,94410.25
2023-03-27T06:30:43.928Z,94422.34
2023-03-27T06:33:12.065Z,94435.41
2023-03-27T06:35:40.490Z,94452.84
2023-03-27T06:38:08.995Z,94449.44
2023-03-27T06:40:38.217Z,94458.09
2023-03-27T06:43:08.134Z,94461.66
2023-03-27T06:45:38.276Z,94466.88
2023-03-27T06:48:16.015Z,94472.94
2023-03-27T06:50:49.707Z,94491.22
2023-03-27T06:55:50.882Z,94496.44
2023-03-27T06:58:19.632Z,94513.06
2023-03-27T07:00:48.842Z,94519.09
2023-03-27T07:03:17.721Z,94522.72
2023-03-27T07:05:45.624Z,94540.81
2023-03-27T07:10:53.351Z,94548.00
2023-03-27T07:13:29.302Z,94550.63
2023-03-27T07:15:56.894Z,94558.44
2023-03-27T07:18:24.576Z,94574.13
2023-03-27T07:20:52.279Z,94577.56
2023-03-27T07:23:19.931Z,94588.78
2023-03-27T07:25:49.901Z,94597.44
2023-03-27T07:28:18.472Z,94599.25
2023-03-27T07:30:47.542Z,94598.44
2023-03-27T07:33:15.276Z,94614.13
2023-03-27T07:35:43.962Z,94615.91
2023-03-27T07:38:12.518Z,94620.94
2023-03-27T07:40:40.923Z,94631.41
2023-03-27T07:43:09.135Z,94630.56
2023-03-27T07:45:37.172Z,94646.09
2023-03-27T07:48:10.684Z,94657.38
2023-03-27T07:50:39.008Z,94661.78
2023-03-27T07:53:07.361Z,94662.59
2023-03-27T07:55:37.705Z,94663.56
2023-03-27T07:58:06.887Z,94685.28
2023-03-27T08:00:36.237Z,94681.03
2023-03-27T08:03:08.238Z,94694.91
2023-03-27T08:05:38.414Z,94699.16
2023-03-27T08:08:06.499Z,94709.59
2023-03-27T08:10:34.466Z,94714.81
2023-03-27T08:13:02.258Z,94720.06
2023-03-27T08:15:29.873Z,94726.25
2023-03-27T08:18:00.029Z,94728.84
2023-03-27T08:20:27.666Z,94735.88
2023-03-27T08:22:56.608Z,94747.13
2023-03-27T08:25:24.344Z,94758.53
2023-03-27T08:27:52.168Z,94769.81
2023-03-27T08:30:21.715Z,94772.28
2023-03-27T08:32:49.460Z,94768.03
2023-03-27T08:35:18.028Z,94787.13
2023-03-27T08:37:45.739Z,94789.09
2023-03-27T08:40:20.719Z,94785.47
2023-03-27T08:42:53.542Z,94799.38
2023-03-27T08:45:26.001Z,94809.81
2023-03-27T08:47:59.589Z,94810.78
2023-03-27T08:50:34.128Z,94817.66
2023-03-27T08:53:04.544Z,94827.25
2023-03-27T08:55:40.558Z,94831.66
2023-03-27T08:58:17.871Z,94841.16
2023-03-27T09:00:48.495Z,94836.75
2023-03-27T09:03:22.066Z,94847.19
2023-03-27T09:05:54.930Z,94847.19
2023-03-27T09:08:33.118Z,94852.41
2023-03-27T09:11:09.248Z,94855.03
2023-03-27T09:13:43.721Z,94855.03
2023-03-27T09:16:21.066Z,94863.69
2023-03-27T09:18:58.909Z,94858.47
2023-03-27T09:21:32.574Z,94871.53
2023-03-27T09:24:06.590Z,94875.75
2023-03-27T09:26:38.102Z,94878.38
2023-03-27T09:29:19.916Z,94892.25
2023-03-27T09:31:49.862Z,94880.16
2023-03-27T09:34:23.589Z,94892.25
2023-03-27T09:36:51.847Z,94903.66
2023-03-27T09:39:25.211Z,94906.94
2023-03-27T09:41:58.151Z,94907.09
2023-03-27T09:44:28.925Z,94905.31
2023-03-27T09:47:02.495Z,94907.94
2023-03-27T09:49:30.144Z,94911.38
2023-03-27T09:51:59.402Z,94908.75
2023-03-27T09:54:29.802Z,94913.97
2023-03-27T09:57:04.950Z,94929.66
2023-03-27T09:59:37.448Z,94931.44
2023-03-27T10:02:17.641Z,94924.56
2023-03-27T10:04:59.159Z,94935.00
2023-03-27T10:07:27.956Z,94930.78
2023-03-27T10:10:09.011Z,94942.03
2023-03-27T10:12:39.169Z,94949.06
2023-03-27T10:15:25.853Z,94953.28
2023-03-27T10:17:53.631Z,94963.91
2023-03-27T10:20:23.147Z,94964.56
2023-03-27T10:22:54.792Z,94974.19
2023-03-27T10:25:28.812Z,94972.41
2023-03-27T10:28:08.841Z,94974.34
2023-03-27T10:30:40.448Z,94978.59
2023-03-27T10:33:08.520Z,94988.22
2023-03-27T10:35:38.874Z,94994.28
2023-03-27T10:38:12.291Z,94995.06
2023-03-27T10:40:41.476Z,94999.50
2023-03-27T10:43:14.052Z,94993.28
2023-03-27T10:45:47.269Z,95007.00
2023-03-27T10:48:33.393Z,95004.41
2023-03-27T10:51:05.382Z,95009.63
2023-03-27T10:53:41.715Z,95012.22
2023-03-27T10:56:18.090Z,95017.47
2023-03-27T10:58:51.802Z,95022.69
2023-03-27T11:01:26.260Z,95022.69
2023-03-27T11:04:00.498Z,95025.28
2023-03-27T11:06:32.344Z,95025.28
2023-03-27T11:09:05.777Z,95033.78
2023-03-27T11:11:39.463Z,95033.13
2023-03-27T11:14:18.381Z,95027.91
2023-03-27T11:16:48.554Z,95034.91
2023-03-27T11:19:38.694Z,95040.13
2023-03-27T11:22:11.466Z,95048.81
2023-03-27T11:24:46.356Z,95047.84
2023-03-27T11:27:18.936Z,95041.78
2023-03-27T11:29:57.132Z,95048.81
2023-03-27T11:32:34.791Z,95049.78
2023-03-27T11:35:09.098Z,95051.41
2023-03-27T11:37:44.639Z,95047.97
2023-03-27T11:40:17.629Z,95053.34
2023-03-27T11:42:46.713Z,95062.84
2023-03-27T11:45:17.878Z,95064.63
2023-03-27T11:47:58.298Z,95068.06
2023-03-27T11:50:39.621Z,95069.69
2023-03-27T11:53:22.396Z,95064.63
2023-03-27T11:56:04.116Z,95067.25
2023-03-27T11:58:35.690Z,95066.41
2023-03-27T12:01:12.832Z,95070.69
2023-03-27T12:04:12.090Z,95062.84
2023-03-27T12:06:48.148Z,95077.53
2023-03-27T12:09:31.117Z,95078.34
2023-03-27T12:12:16.869Z,95070.69
2023-03-27T12:14:54.660Z,95081.13
2023-03-27T12:17:35.467Z,95081.94
2023-03-27T12:20:21.917Z,95084.53
2023-03-27T12:22:58.687Z,95089.63
2023-03-27T12:25:43.499Z,95079.97
2023-03-27T12:28:23.743Z,95077.38
2023-03-27T12:30:57.585Z,95085.22
2023-03-27T12:33:38.857Z,95092.91
2023-03-27T12:36:12.579Z,95093.03
2023-03-27T12:38:42.796Z,95090.31
2023-03-27T12:41:21.619Z,95101.56
2023-03-27T12:43:54.532Z,95103.38
2023-03-27T12:46:34.346Z,95103.38
2023-03-27T12:49:29.296Z,95110.22
2023-03-27T12:52:05.768Z,95106.09
2023-03-27T12:54:35.307Z,95100.88
2023-03-27T12:57:08.148Z,95104.31
2023-03-27T12:59:39.527Z,95114.94
2023-03-27T13:02:40.508Z,95120.16
2023-03-27T13:05:46.369Z,95112.97
2023-03-27T13:08:42.270Z,95115.59
2023-03-27T13:11:21.598Z,95117.38
2023-03-27T13:14:17.317Z,95122.59
2023-03-27T13:17:06.961Z,95127.81
2023-03-27T13:19:49.810Z,95129.47
2023-03-27T13:22:28.865Z,95138.28
2023-03-27T13:25:11.264Z,95132.22
2023-03-27T13:27:50.008Z,95134.69
2023-03-27T13:30:44.157Z,95133.88
2023-03-27T13:33:17.619Z,95137.31
2023-03-27T13:36:03.543Z,95140.88
2023-03-27T13:39:18.309Z,95149.56
2023-03-27T13:41:55.258Z,95138.28
2023-03-27T13:44:34.000Z,95142.84
2023-03-27T13:47:13.286Z,95143.50
2023-03-27T13:50:03.200Z,95148.72
2023-03-27T13:52:52.961Z,95153.94
2023-03-27T13:55:44.710Z,95152.31
2023-03-27T13:58:27.248Z,95151.34
2023-03-27T14:01:14.463Z,95161.78
2023-03-27T14:04:18.778Z,95163.44
2023-03-27T14:07:06.464Z,95170.44
2023-03-27T14:09:49.074Z,95178.13
2023-03-27T14:12:25.239Z,95176.50
2023-03-27T14:15:23.002Z,95183.34
2023-03-27T14:18:11.837Z,95181.72
2023-03-27T14:20:42.432Z,95187.63
2023-03-27T14:23:16.727Z,95185.97
2023-03-27T14:25:48.321Z,95190.38
2023-03-27T14:28:31.577Z,95192.00
2023-03-27T14:31:02.261Z,95212.91
2023-03-27T14:33:29.956Z,95225.97
2023-03-27T14:36:03.783Z,95243.44
2023-03-27T14:38:33.924Z,95248.81
2023-03-27T14:41:03.139Z,95245.38
2023-03-27T14:43:32.807Z,95265.31
2023-03-27T14:46:03.300Z,95262.69
2023-03-27T14:48:37.154Z,95261.88
2023-03-27T14:51:13.804Z,95257.47
2023-03-27T14:53:45.007Z,95247.97
2023-03-27T14:56:22.962Z,95256.66
2023-03-27T14:58:55.254Z,95255.00
2023-03-27T15:01:23.153Z,95255.81
2023-03-27T15:03:52.920Z,95251.41
2023-03-27T15:06:25.827Z,95255.16
2023-03-27T15:08:55.753Z,95256.81
2023-03-27T15:11:26.564Z,95265.59
2023-03-27T15:13:56.569Z,95277.69
2023-03-27T15:16:27.673Z,95295.16
2023-03-27T15:19:09.565Z,95296.94
2023-03-27T15:21:49.295Z,95295.31
2023-03-27T15:24:22.198Z,95255.31
2023-03-27T15:26:52.598Z,95271.81
2023-03-27T15:29:32.294Z,95263.97
2023-03-27T15:32:02.058Z,95266.59
2023-03-27T15:34:35.085Z,95268.22
2023-03-27T15:37:06.671Z,95271.50
2023-03-27T15:39:34.775Z,95273.28
2023-03-27T15:42:06.083Z,95268.88
2023-03-27T15:44:39.698Z,95276.72
2023-03-27T15:47:24.672Z,95281.94
2023-03-27T15:50:07.983Z,95274.94
2023-03-27T15:52:35.681Z,95279.31
2023-03-27T15:55:04.026Z,95279.31
2023-03-27T15:57:31.777Z,95279.31
2023-03-27T16:00:04.450Z,95279.19
2023-03-27T16:02:32.681Z,95273.28
2023-03-27T16:05:00.501Z,95280.16
2023-03-27T16:07:32.836Z,95279.31
2023-03-27T16:10:05.021Z,95281.94
2023-03-27T16:12:34.181Z,95285.38
2023-03-27T16:15:08.155Z,95282.94
2023-03-27T16:17:44.706Z,95291.56
2023-03-27T16:20:34.771Z,95296.13
2023-03-27T16:23:04.131Z,95296.78
2023-03-27T16:25:31.845Z,95304.63
2023-03-27T16:27:59.486Z,95296.00
2023-03-27T16:30:32.040Z,95293.50
2023-03-27T16:33:00.430Z,95301.34
2023-03-27T16:35:28.595Z,95302.16
2023-03-27T16:37:56.467Z,95292.69
2023-03-27T16:40:24.337Z,95310.00
2023-03-27T16:42:51.990Z,95309.84
2023-03-27T16:45:19.566Z,95330.06
2023-03-27T16:47:52.901Z,95338.75
2023-03-27T16:50:23.262Z,95364.03
2023-03-27T16:52:51.104Z,95363.22
2023-03-27T16:55:18.769Z,95368.44
2023-03-27T16:57:47.057Z,95369.25
2023-03-27T17:00:16.609Z,95364.03
2023-03-27T17:02:46.501Z,95366.63
2023-03-27T17:05:16.047Z,95366.63
2023-03-27T17:07:44.832Z,95364.84
2023-03-27T17:10:12.443Z,95362.25
2023-03-27T17:12:40.154Z,95370.09
2023-03-27T17:15:09.337Z,95366.50
2023-03-27T17:17:36.965Z,95373.38
2023-03-27T17:20:07.544Z,95369.13
2023-03-27T17:22:36.598Z,95380.25
2023-03-27T17:25:05.848Z,95387.25
2023-03-27T17:27:33.953Z,95397.72
2023-03-27T17:30:01.636Z,95394.16
2023-03-27T17:32:29.294Z,95398.53
2023-03-27T17:34:56.877Z,95406.38
2023-03-27T17:37:25.924Z,95396.75
2023-03-27T17:39:55.052Z,95403.75
2023-03-27T17:42:22.760Z,95408.16
2023-03-27T17:44:50.447Z,95404.72
2023-03-27T17:47:18.088Z,95416.94
2023-03-27T17:49:45.671Z,95418.88
2023-03-27T17:52:14.155Z,95425.63
2023-03-27T17:54:41.740Z,95424.94
2023-03-27T17:57:10.790Z,95431.00
2023-03-27T17:59:38.527Z,95436.38
2023-03-27T18:02:07.155Z,95438.00
2023-03-27T18:04:35.293Z,95431.16
2023-03-27T18:07:02.945Z,95439.78
2023-03-27T18:09:31.177Z,95437.31
2023-03-27T18:11:58.800Z,95435.53
2023-03-27T18:14:27.755Z,95438.97
2023-03-27T18:16:55.343Z,95443.38
2023-03-27T18:19:24.086Z,95443.38
2023-03-27T18:21:51.718Z,95449.44
2023-03-27T18:24:19.340Z,95441.59
2023-03-27T18:26:47.038Z,95447.78
2023-03-27T18:29:15.425Z,95455.59
2023-03-27T18:31:44.879Z,95442.53
2023-03-27T18:34:12.586Z,95459.06
2023-03-27T18:36:40.458Z,95460.00
2023-03-27T18:39:08.051Z,95465.09
2023-03-27T18:41:36.469Z,95466.88
2023-03-27T18:44:04.066Z,95472.94
2023-03-27T18:46:31.774Z,95461.50
2023-03-27T18:49:10.291Z,95469.34
2023-03-27T18:51:45.410Z,95471.97
2023-03-27T18:54:13.563Z,95474.56
2023-03-27T18:56:41.373Z,95474.41
2023-03-27T18:59:11.057Z,95475.25
2023-03-27T19:01:38.782Z,95479.78
2023-03-27T19:04:07.836Z,95487.47
2023-03-27T19:06:36.476Z,95499.59
2023-03-27T19:09:05.525Z,95486.53
2023-03-27T19:11:33.174Z,95488.31
2023-03-27T19:14:00.784Z,95492.69
2023-03-27T19:16:28.621Z,95485.69
2023-03-27T19:18:56.227Z,95484.88
2023-03-27T19:21:25.156Z,95481.44
2023-03-27T19:23:52.746Z,95484.88
2023-03-27T19:26:20.433Z,95478.97
2023-03-27T19:28:48.517Z,95482.41
2023-03-27T19:31:16.740Z,95491.06
2023-03-27T19:33:45.631Z,95500.69
2023-03-27T19:36:13.289Z,95492.03
2023-03-27T19:38:42.328Z,95501.53
2023-03-27T19:41:10.915Z,95508.53
2023-03-27T19:43:38.509Z,95501.53
2023-03-27T19:46:15.800Z,95500.69
2023-03-27T19:48:44.278Z,95502.47
2023-03-27T19:51:11.891Z,95504.28
2023-03-27T19:53:39.490Z,95509.50
2023-03-27T19:56:08.592Z,95507.03
2023-03-27T19:58:36.309Z,95505.25
2023-03-27T20:01:04.593Z,95518.16
2023-03-27T20:03:33.155Z,95509.78
2023-03-27T20:06:06.553Z,95518.03
2023-03-27T20:08:37.897Z,95514.91
2023-03-27T20:11:07.080Z,95517.78
2023-03-27T20:13:49.060Z,95515.44
2023-03-27T20:16:26.040Z,95511.34
2023-03-27T20:19:02.956Z,95518.47
2023-03-27T20:21:32.431Z,95519.44
2023-03-27T20:24:00.188Z,95515.06
2023-03-27T20:26:28.181Z,95524.69
2023-03-27T20:28:57.133Z,95516.00
2023-03-27T20:31:24.734Z,95523.00
2023-03-27T20:33:53.140Z,95512.72
2023-03-27T20:36:23.406Z,95517.09
2023-03-27T20:38:59.332Z,95518.91
2023-03-27T20:41:28.277Z,95510.25
2023-03-27T20:43:59.151Z,95513.81
2023-03-27T20:46:30.751Z,95523.59
2023-03-27T20:48:58.593Z,95525.34
2023-03-27T20:51:26.188Z,95519.34
2023-03-27T20:53:58.203Z,95515.91
2023-03-27T20:56:26.213Z,95515.06
2023-03-27T20:58:54.072Z,95515.34
2023-03-27T21:01:27.490Z,95516.16
2023-03-27T21:03:58.442Z,95517.94
2023-03-27T21:06:26.413Z,95518.09
2023-03-27T21:08:54.164Z,95508.47
2023-03-27T21:11:21.756Z,95517.16
2023-03-27T21:13:50.425Z,95517.16
2023-03-27T21:16:18.216Z,95518.25
2023-03-27T21:18:47.182Z,95521.81
2023-03-27T21:21:14.850Z,95527.84
2023-03-27T21:23:42.437Z,95529.78
2023-03-27T21:26:10.079Z,95531.56
2023-03-27T21:28:37.755Z,95533.50
2023-03-27T21:31:07.647Z,95536.09
2023-03-27T21:33:35.345Z,95531.88
2023-03-27T21:36:05.335Z,95532.97
2023-03-27T21:38:33.142Z,95529.66
2023-03-27T21:41:02.315Z,95535.00
2023-03-27T21:43:30.068Z,95543.94
2023-03-27T21:46:00.025Z,95546.69
2023-03-27T21:48:27.930Z,95545.06
2023-03-27T21:50:59.483Z,95539.94
2023-03-27T21:53:28.551Z,95549.44
2023-03-27T21:55:56.526Z,95550.53
2023-03-27T21:58:24.704Z,95553.28
2023-03-27T22:00:52.555Z,95556.84
2023-03-27T22:03:20.185Z,95568.28
2023-03-27T22:05:57.444Z,95564.09
2023-03-27T22:08:37.961Z,95566.84
2023-03-27T22:11:06.231Z,95563.53
2023-03-27T22:13:35.829Z,95575.91
2023-03-27T22:16:07.440Z,95571.91
2023-03-27T22:18:35.132Z,95576.31
2023-03-27T22:21:13.090Z,95577.41
2023-03-27T22:23:42.055Z,95581.94
2023-03-27T22:26:09.691Z,95589.75
2023-03-27T22:28:37.402Z,95584.84
2023-03-27T22:31:05.514Z,95588.38
2023-03-27T22:33:33.086Z,95585.50
2023-03-27T22:36:01.172Z,95589.34
2023-03-27T22:38:30.376Z,95588.25
2023-03-27T22:40:59.962Z,95587.84
2023-03-27T22:43:29.898Z,95589.38
2023-03-27T22:45:57.856Z,95592.66
2023-03-27T22:48:25.916Z,95594.22
2023-03-27T22:50:58.083Z,95602.72
2023-03-27T22:53:26.851Z,95599.88
2023-03-27T22:55:56.566Z,95603.28
2023-03-27T22:58:26.293Z,95612.75
2023-03-27T23:00:55.338Z,95619.63
2023-03-27T23:03:24.162Z,95612.47
2023-03-27T23:05:52.472Z,95624.56
2023-03-27T23:08:23.847Z,95621.03
2023-03-27T23:10:56.159Z,95621.03
2023-03-27T23:13:25.486Z,95616.59
2023-03-27T23:15:53.378Z,95622.81
2023-03-27T23:18:23.731Z,95620.03
2023-03-27T23:20:54.546Z,95624.44
2023-03-27T23:23:22.505Z,95625.25
2023-03-27T23:25:50.484Z,95626.25
2023-03-27T23:28:18.103Z,95623.50
2023-03-27T23:30:54.627Z,95632.25
2023-03-27T23:33:24.837Z,95627.03
2023-03-27T23:35:52.758Z,95633.78
2023-03-27T23:38:20.416Z,95644.22
2023-03-27T23:40:48.029Z,95640.78
2023-03-27T23:43:15.678Z,95632.94
2023-03-27T23:45:43.986Z,95641.63
2023-03-27T23:48:12.903Z,95649.44
2023-03-27T23:50:40.531Z,95647.66
2023-03-27T23:53:08.162Z,95652.88
2023-03-27T23:55:35.800Z,95652.88
2023-03-27T23:58:04.156Z,95651.94
